sensor_id;sensor_type;location;lat;lon;timestamp;P1;durP1;ratioP1;P2;durP2;ratioP2
61391;SDS011;47261;52.892;5.738;2023-02-15T00:01:33;175.57;;;23.77;;
61391;SDS011;47261;52.892;5.738;2023-02-15T00:04:00;485.30;;;47.50;;
61391;SDS011;47261;52.892;5.738;2023-02-15T00:06:26;526.22;;;48.80;;
61391;SDS011;47261;52.892;5.738;2023-02-15T00:08:53;215.30;;;21.50;;
61391;SDS011;47261;52.892;5.738;2023-02-15T00:11:19;259.15;;;29.30;;
61391;SDS011;47261;52.892;5.738;2023-02-15T00:14:05;209.80;;;24.77;;
61391;SDS011;47261;52.892;5.738;2023-02-15T00:16:40;296.75;;;27.48;;
61391;SDS011;47261;52.892;5.738;2023-02-15T00:19:07;391.43;;;37.63;;
61391;SDS011;47261;52.892;5.738;2023-02-15T00:21:34;198.98;;;27.67;;
61391;SDS011;47261;52.892;5.738;2023-02-15T00:24:02;214.48;;;26.95;;
61391;SDS011;47261;52.892;5.738;2023-02-15T00:26:28;191.13;;;25.70;;
61391;SDS011;47261;52.892;5.738;2023-02-15T00:28:54;380.50;;;29.37;;
61391;SDS011;47261;52.892;5.738;2023-02-15T00:31:23;140.93;;;17.73;;
61391;SDS011;47261;52.892;5.738;2023-02-15T00:33:49;208.13;;;20.70;;
61391;SDS011;47261;52.892;5.738;2023-02-15T00:36:15;537.23;;;35.37;;
61391;SDS011;47261;52.892;5.738;2023-02-15T00:38:41;58.15;;;25.50;;
61391;SDS011;47261;52.892;5.738;2023-02-15T00:41:07;48.67;;;23.73;;
61391;SDS011;47261;52.892;5.738;2023-02-15T00:43:33;32.77;;;17.53;;
61391;SDS011;47261;52.892;5.738;2023-02-15T00:45:59;36.72;;;18.10;;
61391;SDS011;47261;52.892;5.738;2023-02-15T00:48:25;40.70;;;18.83;;
61391;SDS011;47261;52.892;5.738;2023-02-15T00:50:53;39.65;;;17.52;;
61391;SDS011;47261;52.892;5.738;2023-02-15T00:53:21;38.30;;;18.17;;
61391;SDS011;47261;52.892;5.738;2023-02-15T00:55:47;59.03;;;17.88;;
61391;SDS011;47261;52.892;5.738;2023-02-15T00:58:13;63.65;;;18.35;;
61391;SDS011;47261;52.892;5.738;2023-02-15T01:00:40;47.08;;;20.23;;
61391;SDS011;47261;52.892;5.738;2023-02-15T01:03:07;42.03;;;19.90;;
61391;SDS011;47261;52.892;5.738;2023-02-15T01:05:33;50.00;;;21.27;;
61391;SDS011;47261;52.892;5.738;2023-02-15T01:07:59;49.60;;;21.57;;
61391;SDS011;47261;52.892;5.738;2023-02-15T01:10:25;53.45;;;23.75;;
61391;SDS011;47261;52.892;5.738;2023-02-15T01:12:52;118.25;;;25.77;;
61391;SDS011;47261;52.892;5.738;2023-02-15T01:15:19;130.80;;;24.65;;
61391;SDS011;47261;52.892;5.738;2023-02-15T01:17:44;187.07;;;21.10;;
61391;SDS011;47261;52.892;5.738;2023-02-15T01:20:16;176.77;;;19.95;;
61391;SDS011;47261;52.892;5.738;2023-02-15T01:22:43;180.10;;;20.88;;
61391;SDS011;47261;52.892;5.738;2023-02-15T01:25:08;318.25;;;29.75;;
61391;SDS011;47261;52.892;5.738;2023-02-15T01:27:34;302.77;;;27.90;;
61391;SDS011;47261;52.892;5.738;2023-02-15T01:30:00;160.85;;;20.25;;
61391;SDS011;47261;52.892;5.738;2023-02-15T01:32:26;36.17;;;15.27;;
61391;SDS011;47261;52.892;5.738;2023-02-15T01:34:52;41.78;;;16.05;;
61391;SDS011;47261;52.892;5.738;2023-02-15T01:37:18;31.60;;;15.83;;
61391;SDS011;47261;52.892;5.738;2023-02-15T01:39:43;35.58;;;15.93;;
61391;SDS011;47261;52.892;5.738;2023-02-15T01:42:12;32.40;;;15.82;;
61391;SDS011;47261;52.892;5.738;2023-02-15T01:47:07;54.33;;;17.15;;
61391;SDS011;47261;52.892;5.738;2023-02-15T01:49:40;77.22;;;11.95;;
61391;SDS011;47261;52.892;5.738;2023-02-15T01:52:09;71.82;;;11.95;;
61391;SDS011;47261;52.892;5.738;2023-02-15T01:54:38;58.20;;;13.10;;
61391;SDS011;47261;52.892;5.738;2023-02-15T01:57:08;64.13;;;12.33;;
61391;SDS011;47261;52.892;5.738;2023-02-15T01:59:37;22.63;;;9.88;;
61391;SDS011;47261;52.892;5.738;2023-02-15T02:02:07;69.25;;;10.50;;
61391;SDS011;47261;52.892;5.738;2023-02-15T02:04:41;121.05;;;14.02;;
61391;SDS011;47261;52.892;5.738;2023-02-15T02:07:12;190.02;;;15.43;;
61391;SDS011;47261;52.892;5.738;2023-02-15T02:09:41;104.60;;;14.50;;
61391;SDS011;47261;52.892;5.738;2023-02-15T02:12:07;126.47;;;17.52;;
61391;SDS011;47261;52.892;5.738;2023-02-15T02:14:34;197.13;;;17.23;;
61391;SDS011;47261;52.892;5.738;2023-02-15T02:30:57;251.77;;;21.67;;
61391;SDS011;47261;52.892;5.738;2023-02-15T02:33:38;239.97;;;19.80;;
61391;SDS011;47261;52.892;5.738;2023-02-15T02:39:07;386.10;;;31.55;;
61391;SDS011;47261;52.892;5.738;2023-02-15T02:44:23;262.38;;;28.63;;
61391;SDS011;47261;52.892;5.738;2023-02-15T02:46:58;430.20;;;34.70;;
61391;SDS011;47261;52.892;5.738;2023-02-15T02:49:29;613.22;;;41.53;;
61391;SDS011;47261;52.892;5.738;2023-02-15T02:52:01;266.27;;;29.60;;
61391;SDS011;47261;52.892;5.738;2023-02-15T02:54:28;574.50;;;42.60;;
61391;SDS011;47261;52.892;5.738;2023-02-15T02:56:55;520.33;;;38.10;;
61391;SDS011;47261;52.892;5.738;2023-02-15T02:59:36;609.03;;;60.33;;
61391;SDS011;47261;52.892;5.738;2023-02-15T03:02:11;156.48;;;22.52;;
61391;SDS011;47261;52.892;5.738;2023-02-15T03:05:00;211.10;;;23.30;;
61391;SDS011;47261;52.892;5.738;2023-02-15T03:07:31;175.45;;;23.73;;
61391;SDS011;47261;52.892;5.738;2023-02-15T03:09:59;490.88;;;38.92;;
61391;SDS011;47261;52.892;5.738;2023-02-15T03:12:34;333.73;;;33.23;;
61391;SDS011;47261;52.892;5.738;2023-02-15T03:15:05;377.52;;;31.15;;
61391;SDS011;47261;52.892;5.738;2023-02-15T03:17:36;137.32;;;25.08;;
61391;SDS011;47261;52.892;5.738;2023-02-15T03:20:25;169.52;;;28.48;;
61391;SDS011;47261;52.892;5.738;2023-02-15T03:22:57;50.03;;;18.35;;
61391;SDS011;47261;52.892;5.738;2023-02-15T03:25:42;62.83;;;17.37;;
61391;SDS011;47261;52.892;5.738;2023-02-15T03:28:15;32.05;;;14.57;;
61391;SDS011;47261;52.892;5.738;2023-02-15T03:30:48;34.72;;;13.93;;
61391;SDS011;47261;52.892;5.738;2023-02-15T03:33:18;32.80;;;16.38;;
61391;SDS011;47261;52.892;5.738;2023-02-15T03:38:25;73.90;;;19.53;;
61391;SDS011;47261;52.892;5.738;2023-02-15T03:41:04;47.97;;;15.80;;
61391;SDS011;47261;52.892;5.738;2023-02-15T03:43:38;265.45;;;22.23;;
61391;SDS011;47261;52.892;5.738;2023-02-15T03:46:12;253.65;;;23.52;;
61391;SDS011;47261;52.892;5.738;2023-02-15T03:49:00;298.27;;;22.15;;
61391;SDS011;47261;52.892;5.738;2023-02-15T03:51:31;64.73;;;22.03;;
61391;SDS011;47261;52.892;5.738;2023-02-15T03:56:33;144.43;;;15.13;;
61391;SDS011;47261;52.892;5.738;2023-02-15T03:59:00;517.45;;;37.83;;
61391;SDS011;47261;52.892;5.738;2023-02-15T04:02:14;443.27;;;36.47;;
61391;SDS011;47261;52.892;5.738;2023-02-15T04:04:49;353.47;;;22.93;;
61391;SDS011;47261;52.892;5.738;2023-02-15T04:07:15;369.45;;;23.60;;
61391;SDS011;47261;52.892;5.738;2023-02-15T04:09:40;345.67;;;26.25;;
61391;SDS011;47261;52.892;5.738;2023-02-15T04:12:25;381.50;;;24.00;;
61391;SDS011;47261;52.892;5.738;2023-02-15T04:14:50;448.98;;;31.20;;
61391;SDS011;47261;52.892;5.738;2023-02-15T04:17:35;531.38;;;38.97;;
61391;SDS011;47261;52.892;5.738;2023-02-15T04:20:02;505.77;;;37.80;;
61391;SDS011;47261;52.892;5.738;2023-02-15T04:22:46;467.30;;;31.38;;
61391;SDS011;47261;52.892;5.738;2023-02-15T04:25:31;466.25;;;33.00;;
61391;SDS011;47261;52.892;5.738;2023-02-15T04:27:56;475.37;;;30.60;;
61391;SDS011;47261;52.892;5.738;2023-02-15T04:30:23;538.60;;;34.17;;
61391;SDS011;47261;52.892;5.738;2023-02-15T04:32:50;508.25;;;34.00;;
61391;SDS011;47261;52.892;5.738;2023-02-15T04:35:16;432.53;;;29.60;;
61391;SDS011;47261;52.892;5.738;2023-02-15T04:37:43;506.55;;;32.95;;
61391;SDS011;47261;52.892;5.738;2023-02-15T04:40:10;492.70;;;30.85;;
61391;SDS011;47261;52.892;5.738;2023-02-15T04:42:37;595.50;;;34.83;;
61391;SDS011;47261;52.892;5.738;2023-02-15T04:45:03;525.67;;;31.50;;
61391;SDS011;47261;52.892;5.738;2023-02-15T04:47:29;481.40;;;29.20;;
61391;SDS011;47261;52.892;5.738;2023-02-15T04:49:55;543.17;;;31.97;;
61391;SDS011;47261;52.892;5.738;2023-02-15T04:52:21;555.90;;;35.28;;
61391;SDS011;47261;52.892;5.738;2023-02-15T04:54:47;510.38;;;33.75;;
61391;SDS011;47261;52.892;5.738;2023-02-15T04:57:13;445.03;;;30.87;;
61391;SDS011;47261;52.892;5.738;2023-02-15T04:59:39;437.85;;;31.35;;
61391;SDS011;47261;52.892;5.738;2023-02-15T05:02:05;446.57;;;30.33;;
61391;SDS011;47261;52.892;5.738;2023-02-15T05:04:30;640.75;;;40.38;;
61391;SDS011;47261;52.892;5.738;2023-02-15T05:06:56;612.70;;;38.60;;
61391;SDS011;47261;52.892;5.738;2023-02-15T05:09:22;523.60;;;34.70;;
61391;SDS011;47261;52.892;5.738;2023-02-15T05:11:48;593.58;;;42.25;;
61391;SDS011;47261;52.892;5.738;2023-02-15T05:14:13;659.00;;;44.43;;
61391;SDS011;47261;52.892;5.738;2023-02-15T05:16:39;685.85;;;46.78;;
61391;SDS011;47261;52.892;5.738;2023-02-15T05:19:04;448.03;;;33.10;;
61391;SDS011;47261;52.892;5.738;2023-02-15T05:21:31;286.77;;;27.50;;
61391;SDS011;47261;52.892;5.738;2023-02-15T05:23:57;373.00;;;32.13;;
61391;SDS011;47261;52.892;5.738;2023-02-15T05:26:23;322.65;;;28.55;;
61391;SDS011;47261;52.892;5.738;2023-02-15T05:29:08;337.30;;;27.42;;
61391;SDS011;47261;52.892;5.738;2023-02-15T05:31:34;303.23;;;29.33;;
61391;SDS011;47261;52.892;5.738;2023-02-15T05:34:01;527.42;;;36.53;;
61391;SDS011;47261;52.892;5.738;2023-02-15T05:36:27;697.10;;;43.63;;
61391;SDS011;47261;52.892;5.738;2023-02-15T05:38:53;567.95;;;41.92;;
61391;SDS011;47261;52.892;5.738;2023-02-15T05:41:19;347.17;;;27.63;;
61391;SDS011;47261;52.892;5.738;2023-02-15T05:43:45;90.28;;;19.77;;
61391;SDS011;47261;52.892;5.738;2023-02-15T05:46:11;288.93;;;23.30;;
61391;SDS011;47261;52.892;5.738;2023-02-15T05:48:37;277.65;;;22.35;;
61391;SDS011;47261;52.892;5.738;2023-02-15T05:51:09;463.15;;;27.60;;
61391;SDS011;47261;52.892;5.738;2023-02-15T05:53:40;256.07;;;19.80;;
61391;SDS011;47261;52.892;5.738;2023-02-15T05:56:07;264.98;;;21.63;;
61391;SDS011;47261;52.892;5.738;2023-02-15T05:58:35;283.67;;;22.00;;
61391;SDS011;47261;52.892;5.738;2023-02-15T06:01:13;232.47;;;22.83;;
61391;SDS011;47261;52.892;5.738;2023-02-15T06:03:40;335.27;;;25.00;;
61391;SDS011;47261;52.892;5.738;2023-02-15T06:06:06;298.92;;;26.27;;
61391;SDS011;47261;52.892;5.738;2023-02-15T06:08:33;296.20;;;25.65;;
61391;SDS011;47261;52.892;5.738;2023-02-15T06:10:59;208.32;;;21.52;;
61391;SDS011;47261;52.892;5.738;2023-02-15T06:13:25;221.10;;;19.80;;
61391;SDS011;47261;52.892;5.738;2023-02-15T06:15:51;238.65;;;22.55;;
61391;SDS011;47261;52.892;5.738;2023-02-15T06:18:16;128.73;;;18.63;;
61391;SDS011;47261;52.892;5.738;2023-02-15T06:20:42;247.75;;;23.98;;
61391;SDS011;47261;52.892;5.738;2023-02-15T06:23:10;262.98;;;22.23;;
61391;SDS011;47261;52.892;5.738;2023-02-15T06:25:35;300.15;;;29.02;;
61391;SDS011;47261;52.892;5.738;2023-02-15T06:28:01;324.50;;;27.57;;
61391;SDS011;47261;52.892;5.738;2023-02-15T06:30:26;353.58;;;27.77;;
61391;SDS011;47261;52.892;5.738;2023-02-15T06:32:52;348.23;;;25.35;;
61391;SDS011;47261;52.892;5.738;2023-02-15T06:35:18;336.90;;;26.37;;
61391;SDS011;47261;52.892;5.738;2023-02-15T06:37:45;197.15;;;19.73;;
61391;SDS011;47261;52.892;5.738;2023-02-15T06:40:11;179.82;;;20.83;;
61391;SDS011;47261;52.892;5.738;2023-02-15T06:42:36;103.63;;;17.73;;
61391;SDS011;47261;52.892;5.738;2023-02-15T06:45:02;144.65;;;18.85;;
61391;SDS011;47261;52.892;5.738;2023-02-15T06:47:29;127.47;;;20.60;;
61391;SDS011;47261;52.892;5.738;2023-02-15T06:49:54;132.73;;;19.40;;
61391;SDS011;47261;52.892;5.738;2023-02-15T06:52:20;153.33;;;19.87;;
61391;SDS011;47261;52.892;5.738;2023-02-15T06:54:46;146.53;;;19.47;;
61391;SDS011;47261;52.892;5.738;2023-02-15T06:57:11;240.15;;;23.30;;
61391;SDS011;47261;52.892;5.738;2023-02-15T06:59:37;107.07;;;19.70;;
61391;SDS011;47261;52.892;5.738;2023-02-15T07:02:03;83.60;;;18.95;;
61391;SDS011;47261;52.892;5.738;2023-02-15T07:04:28;49.93;;;17.50;;
61391;SDS011;47261;52.892;5.738;2023-02-15T07:06:54;60.22;;;19.65;;
61391;SDS011;47261;52.892;5.738;2023-02-15T07:09:21;59.35;;;19.05;;
61391;SDS011;47261;52.892;5.738;2023-02-15T07:11:47;65.70;;;19.97;;
61391;SDS011;47261;52.892;5.738;2023-02-15T07:14:31;53.60;;;19.67;;
61391;SDS011;47261;52.892;5.738;2023-02-15T07:16:57;46.55;;;17.45;;
61391;SDS011;47261;52.892;5.738;2023-02-15T07:19:23;40.57;;;15.57;;
61391;SDS011;47261;52.892;5.738;2023-02-15T07:21:48;43.70;;;15.83;;
61391;SDS011;47261;52.892;5.738;2023-02-15T07:24:14;44.38;;;17.15;;
61391;SDS011;47261;52.892;5.738;2023-02-15T07:26:39;38.07;;;15.63;;
61391;SDS011;47261;52.892;5.738;2023-02-15T07:29:05;43.97;;;17.63;;
61391;SDS011;47261;52.892;5.738;2023-02-15T07:31:31;39.80;;;16.70;;
61391;SDS011;47261;52.892;5.738;2023-02-15T07:33:57;44.58;;;19.90;;
61391;SDS011;47261;52.892;5.738;2023-02-15T07:36:22;41.83;;;18.93;;
61391;SDS011;47261;52.892;5.738;2023-02-15T07:38:48;46.10;;;19.75;;
61391;SDS011;47261;52.892;5.738;2023-02-15T07:41:14;48.10;;;18.80;;
61391;SDS011;47261;52.892;5.738;2023-02-15T07:43:41;50.42;;;19.88;;
61391;SDS011;47261;52.892;5.738;2023-02-15T07:46:09;46.42;;;18.63;;
61391;SDS011;47261;52.892;5.738;2023-02-15T07:48:40;40.27;;;16.77;;
61391;SDS011;47261;52.892;5.738;2023-02-15T07:51:07;43.22;;;18.20;;
61391;SDS011;47261;52.892;5.738;2023-02-15T07:53:34;43.05;;;18.80;;
61391;SDS011;47261;52.892;5.738;2023-02-15T07:56:01;38.83;;;17.58;;
61391;SDS011;47261;52.892;5.738;2023-02-15T07:58:29;43.88;;;17.90;;
61391;SDS011;47261;52.892;5.738;2023-02-15T08:01:14;42.57;;;16.93;;
61391;SDS011;47261;52.892;5.738;2023-02-15T08:03:40;43.50;;;17.98;;
61391;SDS011;47261;52.892;5.738;2023-02-15T08:06:05;51.42;;;20.65;;
61391;SDS011;47261;52.892;5.738;2023-02-15T08:08:35;56.50;;;21.43;;
61391;SDS011;47261;52.892;5.738;2023-02-15T08:13:49;54.92;;;23.08;;
61391;SDS011;47261;52.892;5.738;2023-02-15T08:16:20;53.00;;;22.30;;
61391;SDS011;47261;52.892;5.738;2023-02-15T08:18:53;55.42;;;20.52;;
61391;SDS011;47261;52.892;5.738;2023-02-15T08:21:20;52.80;;;21.37;;
61391;SDS011;47261;52.892;5.738;2023-02-15T08:23:46;44.20;;;18.40;;
61391;SDS011;47261;52.892;5.738;2023-02-15T08:26:13;42.63;;;18.92;;
61391;SDS011;47261;52.892;5.738;2023-02-15T08:28:39;48.50;;;20.45;;
61391;SDS011;47261;52.892;5.738;2023-02-15T08:31:06;45.80;;;18.53;;
61391;SDS011;47261;52.892;5.738;2023-02-15T08:33:36;49.70;;;21.05;;
61391;SDS011;47261;52.892;5.738;2023-02-15T08:36:04;52.33;;;21.17;;
61391;SDS011;47261;52.892;5.738;2023-02-15T08:38:32;46.55;;;20.58;;
61391;SDS011;47261;52.892;5.738;2023-02-15T08:43:38;54.73;;;21.83;;
61391;SDS011;47261;52.892;5.738;2023-02-15T08:46:04;52.58;;;19.60;;
61391;SDS011;47261;52.892;5.738;2023-02-15T08:48:33;53.25;;;22.52;;
61391;SDS011;47261;52.892;5.738;2023-02-15T08:51:03;52.83;;;21.80;;
61391;SDS011;47261;52.892;5.738;2023-02-15T08:53:31;54.15;;;23.65;;
61391;SDS011;47261;52.892;5.738;2023-02-15T08:55:57;44.88;;;19.00;;
61391;SDS011;47261;52.892;5.738;2023-02-15T08:58:23;51.22;;;20.90;;
61391;SDS011;47261;52.892;5.738;2023-02-15T09:00:50;51.00;;;20.73;;
61391;SDS011;47261;52.892;5.738;2023-02-15T09:03:16;47.35;;;21.30;;
61391;SDS011;47261;52.892;5.738;2023-02-15T09:05:42;48.22;;;20.10;;
61391;SDS011;47261;52.892;5.738;2023-02-15T09:08:08;51.57;;;21.27;;
61391;SDS011;47261;52.892;5.738;2023-02-15T09:10:34;48.30;;;20.10;;
61391;SDS011;47261;52.892;5.738;2023-02-15T09:12:59;50.27;;;21.00;;
61391;SDS011;47261;52.892;5.738;2023-02-15T09:15:25;44.22;;;18.63;;
61391;SDS011;47261;52.892;5.738;2023-02-15T09:17:52;43.47;;;20.25;;
61391;SDS011;47261;52.892;5.738;2023-02-15T09:20:18;49.00;;;19.10;;
61391;SDS011;47261;52.892;5.738;2023-02-15T09:22:44;44.85;;;19.70;;
61391;SDS011;47261;52.892;5.738;2023-02-15T09:25:09;54.30;;;21.40;;
61391;SDS011;47261;52.892;5.738;2023-02-15T09:27:35;50.88;;;20.67;;
61391;SDS011;47261;52.892;5.738;2023-02-15T09:30:01;47.97;;;21.13;;
61391;SDS011;47261;52.892;5.738;2023-02-15T09:32:28;51.17;;;22.77;;
61391;SDS011;47261;52.892;5.738;2023-02-15T09:34:54;54.90;;;22.63;;
61391;SDS011;47261;52.892;5.738;2023-02-15T09:37:19;43.13;;;20.43;;
61391;SDS011;47261;52.892;5.738;2023-02-15T09:39:45;47.08;;;21.85;;
61391;SDS011;47261;52.892;5.738;2023-02-15T09:42:15;53.53;;;21.70;;
61391;SDS011;47261;52.892;5.738;2023-02-15T09:47:56;45.40;;;18.92;;
61391;SDS011;47261;52.892;5.738;2023-02-15T10:01:48;36.65;;;16.25;;
61391;SDS011;47261;52.892;5.738;2023-02-15T10:04:32;41.20;;;19.87;;
61391;SDS011;47261;52.892;5.738;2023-02-15T10:15:53;38.50;;;14.48;;
61391;SDS011;47261;52.892;5.738;2023-02-15T10:21:04;44.78;;;19.02;;
61391;SDS011;47261;52.892;5.738;2023-02-15T10:23:53;40.38;;;17.27;;
61391;SDS011;47261;52.892;5.738;2023-02-15T10:26:47;39.23;;;19.30;;
61391;SDS011;47261;52.892;5.738;2023-02-15T10:29:27;42.65;;;19.48;;
61391;SDS011;47261;52.892;5.738;2023-02-15T10:40:14;48.20;;;23.03;;
61391;SDS011;47261;52.892;5.738;2023-02-15T10:54:29;49.40;;;21.83;;
61391;SDS011;47261;52.892;5.738;2023-02-15T11:00:09;48.70;;;20.50;;
61391;SDS011;47261;52.892;5.738;2023-02-15T11:03:01;43.37;;;19.97;;
61391;SDS011;47261;52.892;5.738;2023-02-15T11:05:46;49.78;;;22.85;;
61391;SDS011;47261;52.892;5.738;2023-02-15T11:08:36;45.20;;;21.00;;
61391;SDS011;47261;52.892;5.738;2023-02-15T11:11:06;55.63;;;18.98;;
61391;SDS011;47261;52.892;5.738;2023-02-15T11:13:43;50.28;;;22.92;;
61391;SDS011;47261;52.892;5.738;2023-02-15T11:16:17;48.87;;;20.67;;
61391;SDS011;47261;52.892;5.738;2023-02-15T11:18:53;35.05;;;15.77;;
61391;SDS011;47261;52.892;5.738;2023-02-15T11:21:26;44.42;;;21.15;;
61391;SDS011;47261;52.892;5.738;2023-02-15T11:23:57;47.17;;;21.48;;
61391;SDS011;47261;52.892;5.738;2023-02-15T11:26:30;46.70;;;17.52;;
61391;SDS011;47261;52.892;5.738;2023-02-15T11:31:53;39.20;;;18.20;;
61391;SDS011;47261;52.892;5.738;2023-02-15T11:36:58;35.08;;;15.95;;
61391;SDS011;47261;52.892;5.738;2023-02-15T11:39:26;44.45;;;19.45;;
61391;SDS011;47261;52.892;5.738;2023-02-15T11:41:55;49.23;;;20.87;;
61391;SDS011;47261;52.892;5.738;2023-02-15T11:44:29;41.50;;;18.70;;
61391;SDS011;47261;52.892;5.738;2023-02-15T11:47:01;38.60;;;18.48;;
61391;SDS011;47261;52.892;5.738;2023-02-15T11:49:32;40.95;;;14.82;;
61391;SDS011;47261;52.892;5.738;2023-02-15T11:52:02;36.97;;;17.95;;
61391;SDS011;47261;52.892;5.738;2023-02-15T11:54:31;28.10;;;13.33;;
61391;SDS011;47261;52.892;5.738;2023-02-15T11:57:04;39.58;;;17.48;;
61391;SDS011;47261;52.892;5.738;2023-02-15T11:59:35;43.63;;;19.02;;
61391;SDS011;47261;52.892;5.738;2023-02-15T12:02:19;48.05;;;20.90;;
61391;SDS011;47261;52.892;5.738;2023-02-15T12:04:47;40.03;;;19.27;;
61391;SDS011;47261;52.892;5.738;2023-02-15T12:07:37;36.37;;;14.37;;
61391;SDS011;47261;52.892;5.738;2023-02-15T12:12:39;32.22;;;15.32;;
61391;SDS011;47261;52.892;5.738;2023-02-15T12:15:09;44.30;;;19.52;;
61391;SDS011;47261;52.892;5.738;2023-02-15T12:17:39;50.28;;;20.08;;
61391;SDS011;47261;52.892;5.738;2023-02-15T12:22:38;40.47;;;17.77;;
61391;SDS011;47261;52.892;5.738;2023-02-15T12:25:30;28.63;;;13.57;;
61391;SDS011;47261;52.892;5.738;2023-02-15T12:27:58;30.42;;;12.70;;
61391;SDS011;47261;52.892;5.738;2023-02-15T12:33:04;38.90;;;16.75;;
61391;SDS011;47261;52.892;5.738;2023-02-15T12:35:31;42.30;;;17.43;;
61391;SDS011;47261;52.892;5.738;2023-02-15T12:38:04;42.78;;;19.38;;
61391;SDS011;47261;52.892;5.738;2023-02-15T12:40:47;40.53;;;16.98;;
61391;SDS011;47261;52.892;5.738;2023-02-15T12:43:31;39.97;;;17.27;;
61391;SDS011;47261;52.892;5.738;2023-02-15T12:48:39;39.90;;;16.17;;
61391;SDS011;47261;52.892;5.738;2023-02-15T12:51:08;44.95;;;17.80;;
61391;SDS011;47261;52.892;5.738;2023-02-15T12:53:38;48.90;;;18.70;;
61391;SDS011;47261;52.892;5.738;2023-02-15T12:56:05;32.17;;;13.27;;
61391;SDS011;47261;52.892;5.738;2023-02-15T12:58:33;41.58;;;15.88;;
61391;SDS011;47261;52.892;5.738;2023-02-15T13:06:25;41.13;;;18.40;;
61391;SDS011;47261;52.892;5.738;2023-02-15T13:08:52;33.13;;;13.57;;
61391;SDS011;47261;52.892;5.738;2023-02-15T13:11:28;43.00;;;19.25;;
61391;SDS011;47261;52.892;5.738;2023-02-15T13:14:02;41.55;;;14.70;;
61391;SDS011;47261;52.892;5.738;2023-02-15T13:16:41;45.50;;;18.15;;
61391;SDS011;47261;52.892;5.738;2023-02-15T13:19:11;40.33;;;18.67;;
61391;SDS011;47261;52.892;5.738;2023-02-15T13:22:17;43.93;;;19.93;;
61391;SDS011;47261;52.892;5.738;2023-02-15T13:24:47;34.17;;;13.40;;
61391;SDS011;47261;52.892;5.738;2023-02-15T13:27:20;46.55;;;19.60;;
61391;SDS011;47261;52.892;5.738;2023-02-15T13:29:50;35.97;;;16.05;;
61391;SDS011;47261;52.892;5.738;2023-02-15T13:35:03;41.57;;;19.10;;
61391;SDS011;47261;52.892;5.738;2023-02-15T13:37:50;44.47;;;18.17;;
61391;SDS011;47261;52.892;5.738;2023-02-15T13:40:27;47.40;;;19.35;;
61391;SDS011;47261;52.892;5.738;2023-02-15T13:43:10;39.72;;;17.85;;
61391;SDS011;47261;52.892;5.738;2023-02-15T13:49:17;32.33;;;14.70;;
61391;SDS011;47261;52.892;5.738;2023-02-15T13:51:57;45.75;;;20.52;;
61391;SDS011;47261;52.892;5.738;2023-02-15T14:15:06;45.53;;;19.75;;
61391;SDS011;47261;52.892;5.738;2023-02-15T14:17:59;52.30;;;19.63;;
61391;SDS011;47261;52.892;5.738;2023-02-15T14:23:25;49.72;;;21.30;;
61391;SDS011;47261;52.892;5.738;2023-02-15T14:26:19;29.50;;;11.75;;
61391;SDS011;47261;52.892;5.738;2023-02-15T14:29:19;43.00;;;18.02;;
61391;SDS011;47261;52.892;5.738;2023-02-15T14:31:56;54.10;;;21.63;;
61391;SDS011;47261;52.892;5.738;2023-02-15T14:34:35;48.17;;;19.58;;
61391;SDS011;47261;52.892;5.738;2023-02-15T14:37:06;38.03;;;15.57;;
61391;SDS011;47261;52.892;5.738;2023-02-15T14:39:56;45.38;;;19.85;;
61391;SDS011;47261;52.892;5.738;2023-02-15T14:45:52;44.87;;;20.40;;
61391;SDS011;47261;52.892;5.738;2023-02-15T14:48:32;25.30;;;10.55;;
61391;SDS011;47261;52.892;5.738;2023-02-15T14:51:03;51.38;;;21.63;;
61391;SDS011;47261;52.892;5.738;2023-02-15T14:56:06;49.30;;;22.10;;
61391;SDS011;47261;52.892;5.738;2023-02-15T14:58:34;52.55;;;21.58;;
61391;SDS011;47261;52.892;5.738;2023-02-15T15:01:04;49.25;;;21.83;;
61391;SDS011;47261;52.892;5.738;2023-02-15T15:03:32;45.37;;;21.27;;
61391;SDS011;47261;52.892;5.738;2023-02-15T15:06:00;47.80;;;21.67;;
61391;SDS011;47261;52.892;5.738;2023-02-15T15:08:33;50.28;;;24.02;;
61391;SDS011;47261;52.892;5.738;2023-02-15T15:11:48;48.67;;;22.48;;
61391;SDS011;47261;52.892;5.738;2023-02-15T15:16:25;51.33;;;21.40;;
61391;SDS011;47261;52.892;5.738;2023-02-15T15:18:52;46.38;;;19.17;;
61391;SDS011;47261;52.892;5.738;2023-02-15T15:35:33;56.05;;;23.35;;
61391;SDS011;47261;52.892;5.738;2023-02-15T15:46:47;52.92;;;24.55;;
61391;SDS011;47261;52.892;5.738;2023-02-15T15:49:20;52.88;;;23.55;;
61391;SDS011;47261;52.892;5.738;2023-02-15T15:51:49;50.92;;;24.15;;
61391;SDS011;47261;52.892;5.738;2023-02-15T15:54:16;51.15;;;23.88;;
61391;SDS011;47261;52.892;5.738;2023-02-15T15:56:46;44.93;;;23.53;;
61391;SDS011;47261;52.892;5.738;2023-02-15T15:59:22;53.15;;;24.13;;
61391;SDS011;47261;52.892;5.738;2023-02-15T16:01:56;52.90;;;24.75;;
61391;SDS011;47261;52.892;5.738;2023-02-15T16:04:30;56.25;;;24.23;;
61391;SDS011;47261;52.892;5.738;2023-02-15T16:07:21;52.65;;;25.05;;
61391;SDS011;47261;52.892;5.738;2023-02-15T16:09:55;53.93;;;22.87;;
61391;SDS011;47261;52.892;5.738;2023-02-15T16:12:24;53.10;;;23.48;;
61391;SDS011;47261;52.892;5.738;2023-02-15T16:14:52;63.47;;;27.92;;
61391;SDS011;47261;52.892;5.738;2023-02-15T16:17:22;66.53;;;27.95;;
61391;SDS011;47261;52.892;5.738;2023-02-15T16:19:50;63.67;;;27.92;;
61391;SDS011;47261;52.892;5.738;2023-02-15T16:22:19;61.93;;;28.13;;
61391;SDS011;47261;52.892;5.738;2023-02-15T16:27:44;62.63;;;27.40;;
61391;SDS011;47261;52.892;5.738;2023-02-15T16:30:31;58.42;;;25.17;;
61391;SDS011;47261;52.892;5.738;2023-02-15T16:33:09;55.67;;;25.05;;
61391;SDS011;47261;52.892;5.738;2023-02-15T16:35:37;64.50;;;28.33;;
61391;SDS011;47261;52.892;5.738;2023-02-15T16:38:18;86.20;;;35.70;;
61391;SDS011;47261;52.892;5.738;2023-02-15T16:40:52;72.40;;;32.00;;
61391;SDS011;47261;52.892;5.738;2023-02-15T16:43:24;68.97;;;30.10;;
61391;SDS011;47261;52.892;5.738;2023-02-15T16:45:57;61.45;;;27.10;;
61391;SDS011;47261;52.892;5.738;2023-02-15T16:48:29;60.63;;;26.63;;
61391;SDS011;47261;52.892;5.738;2023-02-15T16:50:56;65.47;;;26.35;;
61391;SDS011;47261;52.892;5.738;2023-02-15T16:53:24;58.45;;;25.70;;
61391;SDS011;47261;52.892;5.738;2023-02-15T16:55:53;56.70;;;26.25;;
61391;SDS011;47261;52.892;5.738;2023-02-15T16:58:28;56.97;;;24.85;;
61391;SDS011;47261;52.892;5.738;2023-02-15T17:01:03;61.63;;;26.87;;
61391;SDS011;47261;52.892;5.738;2023-02-15T17:03:32;62.42;;;28.15;;
61391;SDS011;47261;52.892;5.738;2023-02-15T17:05:58;65.30;;;29.42;;
61391;SDS011;47261;52.892;5.738;2023-02-15T17:13:28;56.72;;;26.45;;
61391;SDS011;47261;52.892;5.738;2023-02-15T17:18:23;69.65;;;29.65;;
61391;SDS011;47261;52.892;5.738;2023-02-15T17:20:50;62.90;;;27.05;;
61391;SDS011;47261;52.892;5.738;2023-02-15T17:23:19;53.27;;;25.40;;
61391;SDS011;47261;52.892;5.738;2023-02-15T17:25:52;71.30;;;28.33;;
61391;SDS011;47261;52.892;5.738;2023-02-15T17:28:19;65.90;;;29.70;;
61391;SDS011;47261;52.892;5.738;2023-02-15T17:30:47;63.63;;;28.05;;